sensor_id;sensor_type;location;lat;lon;timestamp;pressure;altitude;pressure_sealevel;temperature;humidity
64886;BME280;51514;52.206;5.114;2023-07-13T00:01:16;101395.31;;;18.53;87.04
64886;BME280;51514;52.206;5.114;2023-07-13T00:03:41;101393.63;;;18.52;87.29
64886;BME280;51514;52.206;5.114;2023-07-13T00:06:08;101393.38;;;18.47;87.23
64886;BME280;51514;52.206;5.114;2023-07-13T00:08:34;101401.97;;;18.44;87.81
64886;BME280;51514;52.206;5.114;2023-07-13T00:11:01;101401.09;;;18.44;87.82
64886;BME280;51514;52.206;5.114;2023-07-13T00:13:27;101400.25;;;18.43;87.81
64886;BME280;51514;52.206;5.114;2023-07-13T00:15:53;101403.84;;;18.44;87.96
64886;BME280;51514;52.206;5.114;2023-07-13T00:18:20;101399.41;;;18.43;88.06
64886;BME280;51514;52.206;5.114;2023-07-13T00:20:45;101394.81;;;18.43;87.86
64886;BME280;51514;52.206;5.114;2023-07-13T00:23:11;101392.25;;;18.42;87.45
64886;BME280;51514;52.206;5.114;2023-07-13T00:25:36;101394.75;;;18.37;87.26
64886;BME280;51514;52.206;5.114;2023-07-13T00:28:02;101397.69;;;18.35;87.26
64886;BME280;51514;52.206;5.114;2023-07-13T00:30:28;101393.25;;;18.34;87.34
64886;BME280;51514;52.206;5.114;2023-07-13T00:32:53;101401.84;;;18.31;87.16
64886;BME280;51514;52.206;5.114;2023-07-13T00:35:19;101396.75;;;18.28;87.43
64886;BME280;51514;52.206;5.114;2023-07-13T00:37:44;101400.09;;;18.23;87.29
64886;BME280;51514;52.206;5.114;2023-07-13T00:40:12;101396.03;;;18.19;87.31
64886;BME280;51514;52.206;5.114;2023-07-13T00:42:38;101400.41;;;18.14;87.49
64886;BME280;51514;52.206;5.114;2023-07-13T00:47:49;101393.78;;;18.02;87.99
64886;BME280;51514;52.206;5.114;2023-07-13T00:50:16;101391.44;;;17.99;88.03
64886;BME280;51514;52.206;5.114;2023-07-13T00:52:47;101393.72;;;17.95;88.10
64886;BME280;51514;52.206;5.114;2023-07-13T00:55:14;101394.28;;;17.91;88.51
64886;BME280;51514;52.206;5.114;2023-07-13T00:57:41;101386.88;;;17.84;88.77
64886;BME280;51514;52.206;5.114;2023-07-13T01:00:08;101398.56;;;17.78;89.17
64886;BME280;51514;52.206;5.114;2023-07-13T01:02:35;101393.28;;;17.77;89.15
64886;BME280;51514;52.206;5.114;2023-07-13T01:05:09;101399.13;;;17.74;89.57
64886;BME280;51514;52.206;5.114;2023-07-13T01:07:35;101399.97;;;17.74;89.97
64886;BME280;51514;52.206;5.114;2023-07-13T01:10:03;101408.16;;;17.74;89.84
64886;BME280;51514;52.206;5.114;2023-07-13T01:12:28;101406.50;;;17.73;90.01
64886;BME280;51514;52.206;5.114;2023-07-13T01:14:58;101400.75;;;17.68;90.19
64886;BME280;51514;52.206;5.114;2023-07-13T01:17:26;101403.66;;;17.67;89.98
64886;BME280;51514;52.206;5.114;2023-07-13T01:19:52;101401.97;;;17.66;89.95
64886;BME280;51514;52.206;5.114;2023-07-13T01:22:19;101406.94;;;17.62;90.25
64886;BME280;51514;52.206;5.114;2023-07-13T01:24:47;101403.38;;;17.62;90.17
64886;BME280;51514;52.206;5.114;2023-07-13T01:27:16;101408.63;;;17.63;90.23
64886;BME280;51514;52.206;5.114;2023-07-13T01:29:44;101411.56;;;17.62;90.44
64886;BME280;51514;52.206;5.114;2023-07-13T01:32:15;101406.09;;;17.62;90.36
64886;BME280;51514;52.206;5.114;2023-07-13T01:34:41;101409.50;;;17.64;90.56
64886;BME280;51514;52.206;5.114;2023-07-13T01:37:08;101413.28;;;17.63;90.39
64886;BME280;51514;52.206;5.114;2023-07-13T01:39:34;101410.72;;;17.61;90.65
64886;BME280;51514;52.206;5.114;2023-07-13T01:41:59;101417.38;;;17.59;90.71
64886;BME280;51514;52.206;5.114;2023-07-13T01:44:25;101414.19;;;17.55;91.29
64886;BME280;51514;52.206;5.114;2023-07-13T01:46:51;101418.13;;;17.52;91.57
64886;BME280;51514;52.206;5.114;2023-07-13T01:49:16;101416.47;;;17.51;91.84
64886;BME280;51514;52.206;5.114;2023-07-13T01:51:42;101423.97;;;17.49;92.35
64886;BME280;51514;52.206;5.114;2023-07-13T01:54:07;101422.09;;;17.50;92.91
64886;BME280;51514;52.206;5.114;2023-07-13T01:56:32;101426.72;;;17.49;93.32
64886;BME280;51514;52.206;5.114;2023-07-13T01:58:58;101423.13;;;17.49;93.63
64886;BME280;51514;52.206;5.114;2023-07-13T02:01:23;101431.13;;;17.50;93.83
64886;BME280;51514;52.206;5.114;2023-07-13T02:03:49;101428.22;;;17.52;94.13
64886;BME280;51514;52.206;5.114;2023-07-13T02:06:14;101425.94;;;17.56;94.04
64886;BME280;51514;52.206;5.114;2023-07-13T02:08:40;101422.34;;;17.55;94.34
64886;BME280;51514;52.206;5.114;2023-07-13T02:11:06;101419.63;;;17.55;94.30
64886;BME280;51514;52.206;5.114;2023-07-13T02:13:32;101425.94;;;17.56;94.49
64886;BME280;51514;52.206;5.114;2023-07-13T02:15:57;101433.94;;;17.57;94.46
64886;BME280;51514;52.206;5.114;2023-07-13T02:18:23;101431.56;;;17.54;94.65
64886;BME280;51514;52.206;5.114;2023-07-13T02:20:48;101432.59;;;17.53;94.59
64886;BME280;51514;52.206;5.114;2023-07-13T02:23:13;101441.63;;;17.53;95.01
64886;BME280;51514;52.206;5.114;2023-07-13T02:25:39;101436.00;;;17.55;95.12
64886;BME280;51514;52.206;5.114;2023-07-13T02:28:04;101437.22;;;17.52;95.55
64886;BME280;51514;52.206;5.114;2023-07-13T02:30:30;101438.06;;;17.53;95.60
64886;BME280;51514;52.206;5.114;2023-07-13T02:32:56;101437.44;;;17.51;96.32
64886;BME280;51514;52.206;5.114;2023-07-13T02:35:22;101442.03;;;17.50;96.21
64886;BME280;51514;52.206;5.114;2023-07-13T02:37:47;101441.19;;;17.50;96.31
64886;BME280;51514;52.206;5.114;2023-07-13T02:40:13;101440.53;;;17.48;96.66
64886;BME280;51514;52.206;5.114;2023-07-13T02:42:39;101437.81;;;17.48;96.79
64886;BME280;51514;52.206;5.114;2023-07-13T02:45:05;101437.63;;;17.49;96.79
64886;BME280;51514;52.206;5.114;2023-07-13T02:47:32;101441.19;;;17.50;96.47
64886;BME280;51514;52.206;5.114;2023-07-13T02:49:57;101446.81;;;17.48;96.67
64886;BME280;51514;52.206;5.114;2023-07-13T02:52:23;101441.00;;;17.51;96.21
64886;BME280;51514;52.206;5.114;2023-07-13T02:54:48;101441.19;;;17.50;96.50
64886;BME280;51514;52.206;5.114;2023-07-13T02:57:14;101439.94;;;17.52;96.11
64886;BME280;51514;52.206;5.114;2023-07-13T02:59:39;101435.34;;;17.53;95.99
64886;BME280;51514;52.206;5.114;2023-07-13T03:02:05;101438.06;;;17.53;95.58
64886;BME280;51514;52.206;5.114;2023-07-13T03:04:30;101438.53;;;17.57;95.31
64886;BME280;51514;52.206;5.114;2023-07-13T03:06:56;101435.81;;;17.57;95.23
64886;BME280;51514;52.206;5.114;2023-07-13T03:09:24;101439.19;;;17.59;94.38
64886;BME280;51514;52.206;5.114;2023-07-13T03:11:52;101441.06;;;17.58;94.40
64886;BME280;51514;52.206;5.114;2023-07-13T03:14:17;101443.81;;;17.58;94.05
64886;BME280;51514;52.206;5.114;2023-07-13T03:16:43;101448.41;;;17.58;93.09
64886;BME280;51514;52.206;5.114;2023-07-13T03:19:08;101450.97;;;17.59;92.62
64886;BME280;51514;52.206;5.114;2023-07-13T03:21:34;101448.72;;;17.63;92.43
64886;BME280;51514;52.206;5.114;2023-07-13T03:23:59;101446.00;;;17.63;92.48
64886;BME280;51514;52.206;5.114;2023-07-13T03:26:25;101443.91;;;17.65;92.11
64886;BME280;51514;52.206;5.114;2023-07-13T03:28:50;101445.03;;;17.70;91.86
64886;BME280;51514;52.206;5.114;2023-07-13T03:31:18;101441.28;;;17.71;92.13
64886;BME280;51514;52.206;5.114;2023-07-13T03:33:45;101448.69;;;17.77;91.97
64886;BME280;51514;52.206;5.114;2023-07-13T03:36:20;101450.38;;;17.78;92.28
64886;BME280;51514;52.206;5.114;2023-07-13T03:38:52;101456.50;;;17.80;92.20
64886;BME280;51514;52.206;5.114;2023-07-13T03:41:18;101460.94;;;17.81;91.88
64886;BME280;51514;52.206;5.114;2023-07-13T03:43:44;101458.38;;;17.80;92.11
64886;BME280;51514;52.206;5.114;2023-07-13T03:46:10;101457.53;;;17.79;92.10
64886;BME280;51514;52.206;5.114;2023-07-13T03:48:35;101452.44;;;17.76;91.94
64886;BME280;51514;52.206;5.114;2023-07-13T03:51:01;101463.09;;;17.71;92.06
64886;BME280;51514;52.206;5.114;2023-07-13T03:53:27;101463.75;;;17.59;92.86
64886;BME280;51514;52.206;5.114;2023-07-13T03:55:52;101463.84;;;17.50;93.08
64886;BME280;51514;52.206;5.114;2023-07-13T03:58:27;101464.31;;;17.39;93.72
64886;BME280;51514;52.206;5.114;2023-07-13T04:00:54;101475.97;;;17.33;93.89
64886;BME280;51514;52.206;5.114;2023-07-13T04:03:20;101479.81;;;17.24;94.60
64886;BME280;51514;52.206;5.114;2023-07-13T04:05:45;101475.31;;;17.17;94.68
64886;BME280;51514;52.206;5.114;2023-07-13T04:08:11;101483.19;;;17.11;94.95
64886;BME280;51514;52.206;5.114;2023-07-13T04:10:37;101476.78;;;17.04;95.47
64886;BME280;51514;52.206;5.114;2023-07-13T04:13:04;101488.06;;;17.01;95.77
64886;BME280;51514;52.206;5.114;2023-07-13T04:15:31;101488.06;;;17.01;95.74
64886;BME280;51514;52.206;5.114;2023-07-13T04:17:57;101487.19;;;17.01;95.96
64886;BME280;51514;52.206;5.114;2023-07-13T04:20:24;101486.75;;;16.97;96.68
64886;BME280;51514;52.206;5.114;2023-07-13T04:22:49;101483.34;;;16.95;97.12
64886;BME280;51514;52.206;5.114;2023-07-13T04:25:15;101491.53;;;16.95;97.55
64886;BME280;51514;52.206;5.114;2023-07-13T04:27:40;101490.69;;;16.95;97.62
64886;BME280;51514;52.206;5.114;2023-07-13T04:30:06;101488.97;;;16.94;98.17
64886;BME280;51514;52.206;5.114;2023-07-13T04:32:32;101492.06;;;16.91;98.99
64886;BME280;51514;52.206;5.114;2023-07-13T04:34:58;101499.03;;;16.93;99.05
64886;BME280;51514;52.206;5.114;2023-07-13T04:37:27;101499.88;;;16.94;99.62
64886;BME280;51514;52.206;5.114;2023-07-13T04:39:54;101498.66;;;16.96;100.00
64886;BME280;51514;52.206;5.114;2023-07-13T04:42:20;101506.66;;;16.98;100.00
64886;BME280;51514;52.206;5.114;2023-07-13T04:44:52;101507.47;;;16.98;100.00
64886;BME280;51514;52.206;5.114;2023-07-13T04:47:18;101505.91;;;17.04;100.00
64886;BME280;51514;52.206;5.114;2023-07-13T04:49:44;101500.94;;;17.07;100.00
64886;BME280;51514;52.206;5.114;2023-07-13T04:52:10;101504.13;;;17.11;100.00
64886;BME280;51514;52.206;5.114;2023-07-13T04:54:35;101505.28;;;17.17;100.00
64886;BME280;51514;52.206;5.114;2023-07-13T04:57:02;101502.81;;;17.22;100.00
64886;BME280;51514;52.206;5.114;2023-07-13T04:59:28;101500.59;;;17.25;100.00
64886;BME280;51514;52.206;5.114;2023-07-13T05:01:53;101497.94;;;17.32;100.00
64886;BME280;51514;52.206;5.114;2023-07-13T05:04:19;101510.19;;;17.36;100.00
64886;BME280;51514;52.206;5.114;2023-07-13T05:06:44;101509.44;;;17.42;100.00
64886;BME280;51514;52.206;5.114;2023-07-13T05:09:10;101510.75;;;17.46;100.00
64886;BME280;51514;52.206;5.114;2023-07-13T05:11:35;101508.09;;;17.52;100.00
64886;BME280;51514;52.206;5.114;2023-07-13T05:14:01;101516.41;;;17.59;100.00
64886;BME280;51514;52.206;5.114;2023-07-13T05:16:27;101517.38;;;17.66;100.00
64886;BME280;51514;52.206;5.114;2023-07-13T05:18:53;101520.38;;;17.71;100.00
64886;BME280;51514;52.206;5.114;2023-07-13T05:21:18;101527.97;;;17.76;100.00
64886;BME280;51514;52.206;5.114;2023-07-13T05:23:44;101529.97;;;17.82;100.00
64886;BME280;51514;52.206;5.114;2023-07-13T05:26:10;101528.75;;;17.84;100.00
64886;BME280;51514;52.206;5.114;2023-07-13T05:28:36;101524.22;;;17.92;100.00
64886;BME280;51514;52.206;5.114;2023-07-13T05:31:01;101529.56;;;18.00;100.00
64886;BME280;51514;52.206;5.114;2023-07-13T05:33:27;101534.66;;;18.03;100.00
64886;BME280;51514;52.206;5.114;2023-07-13T05:35:53;101542.25;;;18.07;100.00
64886;BME280;51514;52.206;5.114;2023-07-13T05:38:18;101530.97;;;18.10;99.89
64886;BME280;51514;52.206;5.114;2023-07-13T05:40:45;101538.59;;;18.15;99.87
64886;BME280;51514;52.206;5.114;2023-07-13T05:43:11;101536.00;;;18.28;99.36
64886;BME280;51514;52.206;5.114;2023-07-13T05:45:36;101532.50;;;18.34;98.83
64886;BME280;51514;52.206;5.114;2023-07-13T05:48:02;101531.81;;;18.47;98.50
64886;BME280;51514;52.206;5.114;2023-07-13T05:50:27;101541.75;;;18.54;97.87
64886;BME280;51514;52.206;5.114;2023-07-13T05:52:53;101543.34;;;18.64;97.75
64886;BME280;51514;52.206;5.114;2023-07-13T05:55:19;101541.75;;;18.69;97.42
64886;BME280;51514;52.206;5.114;2023-07-13T05:57:44;101547.53;;;18.81;97.32
64886;BME280;51514;52.206;5.114;2023-07-13T06:00:10;101556.09;;;18.99;97.06
64886;BME280;51514;52.206;5.114;2023-07-13T06:02:36;101557.06;;;19.13;95.90
64886;BME280;51514;52.206;5.114;2023-07-13T06:05:01;101558.16;;;19.18;95.20
64886;BME280;51514;52.206;5.114;2023-07-13T06:07:27;101553.34;;;19.20;94.66
64886;BME280;51514;52.206;5.114;2023-07-13T06:09:53;101552.31;;;19.21;94.30
64886;BME280;51514;52.206;5.114;2023-07-13T06:12:18;101560.69;;;19.20;93.57
64886;BME280;51514;52.206;5.114;2023-07-13T06:14:43;101557.69;;;19.15;93.73
64886;BME280;51514;52.206;5.114;2023-07-13T06:17:09;101564.81;;;19.09;93.54
64886;BME280;51514;52.206;5.114;2023-07-13T06:19:34;101563.13;;;19.08;93.75
64886;BME280;51514;52.206;5.114;2023-07-13T06:22:00;101572.09;;;19.23;93.95
64886;BME280;51514;52.206;5.114;2023-07-13T06:24:26;101567.50;;;19.30;93.64
64886;BME280;51514;52.206;5.114;2023-07-13T06:26:51;101572.25;;;19.43;93.31
64886;BME280;51514;52.206;5.114;2023-07-13T06:29:17;101572.13;;;19.51;92.52
64886;BME280;51514;52.206;5.114;2023-07-13T06:31:42;101568.81;;;19.62;91.92
64886;BME280;51514;52.206;5.114;2023-07-13T06:34:08;101573.34;;;19.77;91.40
64886;BME280;51514;52.206;5.114;2023-07-13T06:36:33;101565.97;;;19.77;91.01
64886;BME280;51514;52.206;5.114;2023-07-13T06:38:59;101556.47;;;19.73;90.09
64886;BME280;51514;52.206;5.114;2023-07-13T06:41:24;101558.41;;;19.79;90.11
64886;BME280;51514;52.206;5.114;2023-07-13T06:43:53;101568.38;;;19.93;89.26
64886;BME280;51514;52.206;5.114;2023-07-13T06:46:21;101588.69;;;20.12;89.50
64886;BME280;51514;52.206;5.114;2023-07-13T06:48:47;101586.00;;;20.25;87.93
64886;BME280;51514;52.206;5.114;2023-07-13T06:51:12;101584.75;;;20.28;88.13
64886;BME280;51514;52.206;5.114;2023-07-13T06:53:38;101599.28;;;20.22;89.99
64886;BME280;51514;52.206;5.114;2023-07-13T06:56:04;101606.78;;;20.07;91.36
64886;BME280;51514;52.206;5.114;2023-07-13T06:58:30;101611.78;;;19.68;97.25
64886;BME280;51514;52.206;5.114;2023-07-13T07:00:55;101607.72;;;19.58;98.83
64886;BME280;51514;52.206;5.114;2023-07-13T07:03:21;101604.69;;;19.46;98.96
64886;BME280;51514;52.206;5.114;2023-07-13T07:05:46;101596.94;;;19.28;98.83
64886;BME280;51514;52.206;5.114;2023-07-13T07:08:12;101594.84;;;19.03;98.37
64886;BME280;51514;52.206;5.114;2023-07-13T07:10:38;101615.69;;;18.68;89.59
64886;BME280;51514;52.206;5.114;2023-07-13T07:13:03;101613.38;;;18.35;87.51
64886;BME280;51514;52.206;5.114;2023-07-13T07:15:29;101607.75;;;18.07;88.27
64886;BME280;51514;52.206;5.114;2023-07-13T07:17:55;101611.63;;;17.83;88.04
64886;BME280;51514;52.206;5.114;2023-07-13T07:20:21;101618.47;;;17.65;89.27
64886;BME280;51514;52.206;5.114;2023-07-13T07:22:47;101625.38;;;17.52;90.43
64886;BME280;51514;52.206;5.114;2023-07-13T07:25:12;101618.59;;;17.48;91.83
64886;BME280;51514;52.206;5.114;2023-07-13T07:27:38;101623.22;;;17.48;92.01
64886;BME280;51514;52.206;5.114;2023-07-13T07:30:04;101622.47;;;17.54;93.33
64886;BME280;51514;52.206;5.114;2023-07-13T07:32:30;101619.50;;;17.64;93.21
64886;BME280;51514;52.206;5.114;2023-07-13T07:34:57;101624.03;;;17.71;93.29
64886;BME280;51514;52.206;5.114;2023-07-13T07:37:22;101613.22;;;17.78;92.78
64886;BME280;51514;52.206;5.114;2023-07-13T07:39:48;101621.00;;;17.96;93.10
64886;BME280;51514;52.206;5.114;2023-07-13T07:42:13;101617.72;;;18.30;93.12
64886;BME280;51514;52.206;5.114;2023-07-13T07:44:40;101620.03;;;18.62;94.27
64886;BME280;51514;52.206;5.114;2023-07-13T07:47:06;101621.31;;;18.81;92.32
64886;BME280;51514;52.206;5.114;2023-07-13T07:49:32;101622.34;;;19.01;93.31
64886;BME280;51514;52.206;5.114;2023-07-13T07:51:57;101620.00;;;19.19;91.35
64886;BME280;51514;52.206;5.114;2023-07-13T07:54:23;101621.63;;;19.35;93.11
64886;BME280;51514;52.206;5.114;2023-07-13T07:56:48;101626.47;;;19.40;91.72
64886;BME280;51514;52.206;5.114;2023-07-13T07:59:14;101620.78;;;19.56;92.99
64886;BME280;51514;52.206;5.114;2023-07-13T08:01:39;101618.09;;;19.69;92.50
64886;BME280;51514;52.206;5.114;2023-07-13T08:04:05;101616.69;;;19.73;92.37
64886;BME280;51514;52.206;5.114;2023-07-13T08:06:32;101614.59;;;19.75;90.74
64886;BME280;51514;52.206;5.114;2023-07-13T08:08:58;101614.25;;;19.91;89.76
64886;BME280;51514;52.206;5.114;2023-07-13T08:11:24;101613.69;;;20.02;88.97
64886;BME280;51514;52.206;5.114;2023-07-13T08:13:49;101608.91;;;20.11;88.63
64886;BME280;51514;52.206;5.114;2023-07-13T08:16:15;101618.91;;;20.32;86.89
64886;BME280;51514;52.206;5.114;2023-07-13T08:18:40;101619.63;;;20.40;90.84
64886;BME280;51514;52.206;5.114;2023-07-13T08:21:07;101622.06;;;20.29;89.78
64886;BME280;51514;52.206;5.114;2023-07-13T08:23:33;101614.16;;;20.13;89.70
64886;BME280;51514;52.206;5.114;2023-07-13T08:25:59;101620.19;;;19.95;90.18
64886;BME280;51514;52.206;5.114;2023-07-13T08:28:26;101637.53;;;19.74;91.53
64886;BME280;51514;52.206;5.114;2023-07-13T08:30:52;101627.72;;;19.37;91.13
64886;BME280;51514;52.206;5.114;2023-07-13T08:33:19;101628.72;;;19.08;91.47
64886;BME280;51514;52.206;5.114;2023-07-13T08:35:48;101631.09;;;18.75;90.17
64886;BME280;51514;52.206;5.114;2023-07-13T08:38:15;101642.81;;;18.54;91.15
64886;BME280;51514;52.206;5.114;2023-07-13T08:40:41;101637.66;;;18.30;94.78
64886;BME280;51514;52.206;5.114;2023-07-13T08:43:13;101635.97;;;18.29;96.57
64886;BME280;51514;52.206;5.114;2023-07-13T08:45:46;101646.63;;;18.24;97.30
64886;BME280;51514;52.206;5.114;2023-07-13T08:48:21;101644.56;;;18.26;97.87
64886;BME280;51514;52.206;5.114;2023-07-13T08:50:56;101634.44;;;18.56;97.84
64886;BME280;51514;52.206;5.114;2023-07-13T08:53:24;101629.19;;;18.90;97.29
64886;BME280;51514;52.206;5.114;2023-07-13T08:55:57;101636.03;;;19.01;90.99
64886;BME280;51514;52.206;5.114;2023-07-13T08:58:25;101636.03;;;19.22;90.48
64886;BME280;51514;52.206;5.114;2023-07-13T09:03:46;101653.09;;;19.03;86.76
64886;BME280;51514;52.206;5.114;2023-07-13T09:06:15;101651.91;;;18.91;85.94
64886;BME280;51514;52.206;5.114;2023-07-13T09:09:02;101644.66;;;18.83;87.42
64886;BME280;51514;52.206;5.114;2023-07-13T09:11:49;101649.16;;;18.91;89.49
64886;BME280;51514;52.206;5.114;2023-07-13T09:17:03;101651.19;;;19.25;89.16
64886;BME280;51514;52.206;5.114;2023-07-13T09:19:32;101644.94;;;19.31;88.92
64886;BME280;51514;52.206;5.114;2023-07-13T09:21:59;101647.59;;;19.46;88.63
64886;BME280;51514;52.206;5.114;2023-07-13T09:24:38;101660.94;;;19.83;89.54
64886;BME280;51514;52.206;5.114;2023-07-13T09:27:18;101653.56;;;20.12;89.02
64886;BME280;51514;52.206;5.114;2023-07-13T09:29:48;101654.91;;;20.22;86.47
64886;BME280;51514;52.206;5.114;2023-07-13T09:32:18;101656.97;;;20.55;86.38
64886;BME280;51514;52.206;5.114;2023-07-13T09:34:55;101657.66;;;20.63;84.09
64886;BME280;51514;52.206;5.114;2023-07-13T09:37:31;101654.31;;;20.88;85.19
64886;BME280;51514;52.206;5.114;2023-07-13T09:39:59;101652.69;;;21.00;83.61
64886;BME280;51514;52.206;5.114;2023-07-13T09:42:26;101660.25;;;20.91;82.33
64886;BME280;51514;52.206;5.114;2023-07-13T09:44:56;101659.41;;;20.84;82.17
64886;BME280;51514;52.206;5.114;2023-07-13T09:47:27;101647.78;;;20.75;83.87
64886;BME280;51514;52.206;5.114;2023-07-13T09:50:00;101648.63;;;20.76;82.14
64886;BME280;51514;52.206;5.114;2023-07-13T09:52:27;101666.22;;;21.08;85.17
64886;BME280;51514;52.206;5.114;2023-07-13T09:54:54;101669.44;;;21.31;85.66
64886;BME280;51514;52.206;5.114;2023-07-13T09:57:27;101661.00;;;21.39;82.85
64886;BME280;51514;52.206;5.114;2023-07-13T09:59:54;101668.16;;;21.34;79.08
64886;BME280;51514;52.206;5.114;2023-07-13T10:02:28;101677.03;;;21.42;81.31
64886;BME280;51514;52.206;5.114;2023-07-13T10:05:03;101664.56;;;21.86;78.14
64886;BME280;51514;52.206;5.114;2023-07-13T10:07:31;101663.75;;;22.05;77.41
64886;BME280;51514;52.206;5.114;2023-07-13T10:09:58;101673.47;;;22.01;73.32
64886;BME280;51514;52.206;5.114;2023-07-13T10:12:26;101670.91;;;21.86;75.39
64886;BME280;51514;52.206;5.114;2023-07-13T10:14:57;101668.19;;;21.73;73.04
64886;BME280;51514;52.206;5.114;2023-07-13T10:17:30;101681.50;;;21.70;72.64
64886;BME280;51514;52.206;5.114;2023-07-13T10:19:59;101684.88;;;21.59;75.75
64886;BME280;51514;52.206;5.114;2023-07-13T10:25:18;101684.03;;;21.52;75.13
64886;BME280;51514;52.206;5.114;2023-07-13T10:27:44;101682.34;;;21.57;75.62
64886;BME280;51514;52.206;5.114;2023-07-13T10:32:45;101686.75;;;22.11;72.73
64886;BME280;51514;52.206;5.114;2023-07-13T10:35:13;101687.16;;;22.28;70.79
64886;BME280;51514;52.206;5.114;2023-07-13T10:37:58;101685.63;;;22.45;70.39
64886;BME280;51514;52.206;5.114;2023-07-13T10:40:33;101687.25;;;22.59;69.67
64886;BME280;51514;52.206;5.114;2023-07-13T10:43:02;101692.09;;;22.70;68.67
64886;BME280;51514;52.206;5.114;2023-07-13T10:45:34;101700.53;;;22.82;68.08
64886;BME280;51514;52.206;5.114;2023-07-13T10:48:01;101691.81;;;22.85;68.29
64886;BME280;51514;52.206;5.114;2023-07-13T10:50:28;101698.16;;;22.92;68.60
64886;BME280;51514;52.206;5.114;2023-07-13T10:53:17;101696.00;;;22.94;68.65
64886;BME280;51514;52.206;5.114;2023-07-13T11:00:53;101708.84;;;23.07;70.12
64886;BME280;51514;52.206;5.114;2023-07-13T11:03:22;101697.56;;;23.15;68.99
64886;BME280;51514;52.206;5.114;2023-07-13T11:08:54;101708.47;;;23.35;68.28
64886;BME280;51514;52.206;5.114;2023-07-13T11:14:02;101711.09;;;23.48;67.62
64886;BME280;51514;52.206;5.114;2023-07-13T11:16:44;101716.00;;;23.52;68.60
64886;BME280;51514;52.206;5.114;2023-07-13T11:24:29;101716.69;;;23.73;68.12
64886;BME280;51514;52.206;5.114;2023-07-13T11:30:08;101718.69;;;23.84;67.48
64886;BME280;51514;52.206;5.114;2023-07-13T11:32:34;101722.47;;;23.89;67.41
64886;BME280;51514;52.206;5.114;2023-07-13T11:35:00;101720.94;;;23.93;66.85
64886;BME280;51514;52.206;5.114;2023-07-13T11:37:26;101712.00;;;23.98;66.27
64886;BME280;51514;52.206;5.114;2023-07-13T11:39:53;101705.59;;;24.04;66.18
64886;BME280;51514;52.206;5.114;2023-07-13T11:42:20;101717.00;;;24.08;67.13
64886;BME280;51514;52.206;5.114;2023-07-13T11:44:48;101712.75;;;24.12;66.96
64886;BME280;51514;52.206;5.114;2023-07-13T11:47:18;101722.22;;;24.16;66.88
64886;BME280;51514;52.206;5.114;2023-07-13T11:49:49;101722.63;;;24.19;65.98
64886;BME280;51514;52.206;5.114;2023-07-13T11:52:19;101716.69;;;24.22;66.54
64886;BME280;51514;52.206;5.114;2023-07-13T11:54:54;101720.03;;;24.24;66.23
64886;BME280;51514;52.206;5.114;2023-07-13T11:57:30;101724.88;;;24.29;66.21
64886;BME280;51514;52.206;5.114;2023-07-13T12:00:01;101728.03;;;24.32;65.31
64886;BME280;51514;52.206;5.114;2023-07-13T12:02:34;101719.75;;;24.32;66.85
64886;BME280;51514;52.206;5.114;2023-07-13T12:05:02;101724.56;;;24.37;64.93
64886;BME280;51514;52.206;5.114;2023-07-13T12:07:30;101724.34;;;24.38;65.19
64886;BME280;51514;52.206;5.114;2023-07-13T12:10:17;101719.44;;;24.41;64.24
64886;BME280;51514;52.206;5.114;2023-07-13T12:13:01;101725.59;;;24.43;66.08
64886;BME280;51514;52.206;5.114;2023-07-13T12:15:38;101726.78;;;24.47;65.96
64886;BME280;51514;52.206;5.114;2023-07-13T12:18:15;101718.06;;;24.50;66.24
64886;BME280;51514;52.206;5.114;2023-07-13T12:20:44;101722.91;;;24.54;63.71
64886;BME280;51514;52.206;5.114;2023-07-13T12:23:31;101723.50;;;24.56;66.59
64886;BME280;51514;52.206;5.114;2023-07-13T12:25:59;101723.88;;;24.60;65.63
64886;BME280;51514;52.206;5.114;2023-07-13T12:28:52;101725.59;;;24.61;67.44
64886;BME280;51514;52.206;5.114;2023-07-13T12:31:35;101726.81;;;24.65;68.17
64886;BME280;51514;52.206;5.114;2023-07-13T12:34:02;101734.59;;;24.68;64.40
64886;BME280;51514;52.206;5.114;2023-07-13T12:36:33;101721.22;;;24.71;64.92
64886;BME280;51514;52.206;5.114;2023-07-13T12:39:13;101732.63;;;24.75;65.79
64886;BME280;51514;52.206;5.114;2023-07-13T12:41:39;101730.72;;;24.76;63.43
64886;BME280;51514;52.206;5.114;2023-07-13T12:44:10;101725.78;;;24.78;64.43
64886;BME280;51514;52.206;5.114;2023-07-13T12:46:37;101728.31;;;24.79;62.99
64886;BME280;51514;52.206;5.114;2023-07-13T12:49:06;101722.81;;;24.79;63.53
64886;BME280;51514;52.206;5.114;2023-07-13T12:51:32;101728.31;;;24.79;62.84
64886;BME280;51514;52.206;5.114;2023-07-13T12:54:06;101731.69;;;24.81;66.61
64886;BME280;51514;52.206;5.114;2023-07-13T12:56:36;101724.50;;;24.80;63.22
64886;BME280;51514;52.206;5.114;2023-07-13T12:59:03;101735.06;;;24.83;63.01
64886;BME280;51514;52.206;5.114;2023-07-13T13:01:34;101735.91;;;24.84;64.62
64886;BME280;51514;52.206;5.114;2023-07-13T13:04:03;101733.78;;;24.86;64.02
64886;BME280;51514;52.206;5.114;2023-07-13T13:06:32;101738.22;;;24.87;63.20
64886;BME280;51514;52.206;5.114;2023-07-13T13:08:59;101737.97;;;24.88;63.02
64886;BME280;51514;52.206;5.114;2023-07-13T13:11:26;101741.34;;;24.90;63.01
64886;BME280;51514;52.206;5.114;2023-07-13T13:13:52;101743.03;;;24.91;61.78
64886;BME280;51514;52.206;5.114;2023-07-13T13:16:33;101734.75;;;24.91;65.13
64886;BME280;51514;52.206;5.114;2023-07-13T13:19:13;101744.50;;;24.94;63.17
64886;BME280;51514;52.206;5.114;2023-07-13T13:21:39;101744.28;;;24.95;63.30
64886;BME280;51514;52.206;5.114;2023-07-13T13:24:16;101746.81;;;24.97;62.63
64886;BME280;51514;52.206;5.114;2023-07-13T13:26:43;101746.81;;;24.97;61.18